Terminal Aerodrome Forecast
Issued by NWS

Home | Current Version | Previous Version | Text Only | Print | Product List | Glossary On
Versions: 1 2 3 4 5 6 7 8 9 10 11 12 13 14
000
FTUS46 KPDT 260522
TAFPSC
TAF
KPSC 260522Z 2606/2706 22008KT P6SM SKC
     FM261600 22012KT P6SM BKN220
     FM262000 25014G24KT P6SM SCT200=

USA.gov is the U.S. government's official web portal to all federal, state and local government web resources and services.